createdAt,value
2023-03-12T00:02:20.987Z,0
2023-03-12T00:05:47.112Z,0
2023-03-12T00:09:12.320Z,0
2023-03-12T00:12:37.563Z,0
2023-03-12T00:16:02.774Z,0
2023-03-12T00:19:27.917Z,0
2023-03-12T00:22:53.129Z,0
2023-03-12T00:26:18.305Z,0
2023-03-12T00:29:43.518Z,0
2023-03-12T00:33:08.692Z,0
2023-03-12T00:36:33.869Z,0
2023-03-12T00:39:59.057Z,0
2023-03-12T00:43:24.265Z,0
2023-03-12T00:46:49.535Z,0
2023-03-12T00:50:14.651Z,0
2023-03-12T00:53:39.874Z,0
2023-03-12T00:57:05.081Z,0
2023-03-12T01:00:30.278Z,0
2023-03-12T01:03:55.550Z,0
2023-03-12T01:07:20.651Z,0
2023-03-12T01:10:45.861Z,0
2023-03-12T01:14:11.072Z,0
2023-03-12T01:17:36.283Z,0
2023-03-12T01:21:01.520Z,0
2023-03-12T01:24:26.676Z,0
2023-03-12T01:27:51.863Z,0
2023-03-12T01:31:17.085Z,0
2023-03-12T01:34:43.345Z,0
2023-03-12T01:38:08.578Z,0
2023-03-12T01:41:33.717Z,0
2023-03-12T01:44:58.938Z,0
2023-03-12T01:48:24.111Z,0
2023-03-12T01:51:49.301Z,0
2023-03-12T01:55:14.528Z,0
2023-03-12T01:58:39.676Z,0
2023-03-12T02:02:04.889Z,0
2023-03-12T02:05:30.089Z,0
2023-03-12T02:08:55.282Z,0
2023-03-12T02:12:20.512Z,0
2023-03-12T02:15:45.714Z,0
2023-03-12T02:19:10.926Z,0
2023-03-12T02:22:36.124Z,0
2023-03-12T02:26:01.307Z,0
2023-03-12T02:29:26.527Z,0
2023-03-12T02:32:51.737Z,0
2023-03-12T02:36:16.883Z,0
2023-03-12T02:39:42.055Z,0
2023-03-12T02:43:07.247Z,0
2023-03-12T02:46:32.440Z,0
2023-03-12T02:49:57.613Z,0
2023-03-12T02:53:22.791Z,0
2023-03-12T02:56:47.984Z,0
2023-03-12T03:00:13.165Z,0
2023-03-12T03:03:38.384Z,0
2023-03-12T03:07:03.604Z,0
2023-03-12T03:10:28.782Z,0
2023-03-12T03:13:53.971Z,0
2023-03-12T03:17:19.177Z,0
2023-03-12T03:20:44.389Z,0
2023-03-12T03:24:09.581Z,0
2023-03-12T03:27:34.780Z,0
2023-03-12T03:30:55.901Z,0
2023-03-12T03:34:21.053Z,0
2023-03-12T03:37:46.278Z,0
2023-03-12T03:41:11.429Z,0
2023-03-12T03:44:36.613Z,0
2023-03-12T03:48:01.806Z,0
2023-03-12T03:51:27.009Z,0
2023-03-12T03:54:52.230Z,0
2023-03-12T03:58:17.400Z,0
2023-03-12T04:01:42.576Z,0
2023-03-12T04:05:07.776Z,0
2023-03-12T04:08:32.988Z,0
2023-03-12T04:11:58.187Z,0
2023-03-12T04:15:23.345Z,0
2023-03-12T04:18:48.546Z,0
2023-03-12T04:22:13.772Z,0
2023-03-12T04:25:39.017Z,0
2023-03-12T04:29:04.220Z,0
2023-03-12T04:32:29.377Z,0
2023-03-12T04:35:54.564Z,0
2023-03-12T04:39:19.751Z,0
2023-03-12T04:42:44.940Z,0
2023-03-12T04:46:10.195Z,0
2023-03-12T04:49:35.317Z,0
2023-03-12T04:53:00.555Z,0
2023-03-12T04:56:25.684Z,0
2023-03-12T04:59:50.893Z,0
2023-03-12T05:03:16.117Z,0
2023-03-12T05:06:41.246Z,0
2023-03-12T05:10:06.422Z,0
2023-03-12T05:13:31.629Z,0
2023-03-12T05:16:56.829Z,0
2023-03-12T05:20:22.012Z,0
2023-03-12T05:23:47.192Z,0
2023-03-12T05:27:12.398Z,0
2023-03-12T05:30:37.570Z,0
2023-03-12T05:34:02.760Z,0
2023-03-12T05:37:27.961Z,0
2023-03-12T05:40:53.111Z,0
2023-03-12T05:44:18.282Z,0
2023-03-12T05:47:43.517Z,0
2023-03-12T05:51:08.674Z,0
2023-03-12T05:54:33.885Z,0
2023-03-12T05:57:59.059Z,0
2023-03-12T06:01:24.239Z,0
2023-03-12T06:04:49.415Z,0
2023-03-12T06:08:14.605Z,0
2023-03-12T06:11:39.803Z,0
2023-03-12T06:15:04.981Z,0
2023-03-12T06:18:30.376Z,0
2023-03-12T06:21:55.589Z,0
2023-03-12T06:25:20.790Z,0
2023-03-12T06:28:46.029Z,0
2023-03-12T06:32:11.194Z,6
2023-03-12T06:35:36.393Z,6
2023-03-12T06:39:01.685Z,6
2023-03-12T06:42:26.861Z,6
2023-03-12T06:45:52.164Z,6
2023-03-12T06:49:17.348Z,6
2023-03-12T06:52:42.728Z,6
2023-03-12T06:56:07.893Z,6
2023-03-12T06:59:33.112Z,11
2023-03-12T07:02:58.353Z,11
2023-03-12T07:06:23.482Z,17
2023-03-12T07:09:48.718Z,17
2023-03-12T07:13:13.912Z,17
2023-03-12T07:16:39.129Z,11
2023-03-12T07:20:04.336Z,11
2023-03-12T07:23:29.497Z,6
2023-03-12T07:26:54.710Z,11
2023-03-12T07:30:19.883Z,17
2023-03-12T07:33:45.145Z,23
2023-03-12T07:37:10.257Z,28
2023-03-12T07:40:35.444Z,28
2023-03-12T07:44:00.917Z,17
2023-03-12T07:47:26.213Z,23
2023-03-12T07:50:51.348Z,23
2023-03-12T07:54:16.580Z,28
2023-03-12T07:57:41.799Z,28
2023-03-12T08:01:07.014Z,28
2023-03-12T08:04:32.295Z,34
2023-03-12T08:07:57.372Z,39
2023-03-12T08:11:22.594Z,34
2023-03-12T08:14:47.870Z,34
2023-03-12T08:18:12.935Z,28
2023-03-12T08:21:38.131Z,23
2023-03-12T08:25:03.322Z,34
2023-03-12T08:28:28.549Z,39
2023-03-12T08:32:03.987Z,51
2023-03-12T08:35:18.947Z,39
2023-03-12T08:38:44.137Z,51
2023-03-12T08:42:09.358Z,45
2023-03-12T08:45:34.591Z,34
2023-03-12T08:48:59.783Z,51
2023-03-12T08:52:24.987Z,28
2023-03-12T08:55:50.189Z,34
2023-03-12T08:59:15.412Z,39
2023-03-12T09:02:40.709Z,34
2023-03-12T09:06:05.801Z,17
2023-03-12T09:09:31.059Z,39
2023-03-12T09:12:56.244Z,45
2023-03-12T09:16:21.443Z,39
2023-03-12T09:19:46.759Z,51
2023-03-12T09:23:11.945Z,34
2023-03-12T09:26:37.134Z,28
2023-03-12T09:30:02.388Z,34
2023-03-12T09:33:27.523Z,34
2023-03-12T09:36:52.741Z,39
2023-03-12T09:40:17.926Z,34
2023-03-12T09:43:43.123Z,34
2023-03-12T09:47:08.300Z,34
2023-03-12T09:50:33.495Z,28
2023-03-12T09:53:58.715Z,28
2023-03-12T09:57:23.904Z,28
2023-03-12T10:00:49.081Z,28
2023-03-12T10:04:14.337Z,39
2023-03-12T10:07:39.502Z,34
2023-03-12T10:11:04.749Z,34
2023-03-12T10:14:29.946Z,34
2023-03-12T10:17:55.240Z,34
2023-03-12T10:21:20.354Z,28
2023-03-12T10:24:45.901Z,34
2023-03-12T10:28:11.150Z,34
2023-03-12T10:31:36.307Z,28
2023-03-12T10:35:01.551Z,34
2023-03-12T10:38:26.751Z,34
2023-03-12T10:41:51.943Z,28
2023-03-12T10:45:17.277Z,28
2023-03-12T10:48:42.432Z,28
2023-03-12T10:52:07.640Z,28
2023-03-12T10:55:32.803Z,28
2023-03-12T10:58:57.991Z,28
2023-03-12T11:02:23.231Z,34
2023-03-12T11:05:48.433Z,34
2023-03-12T11:09:16.898Z,34
2023-03-12T11:12:38.793Z,45
2023-03-12T11:16:04.051Z,45
2023-03-12T11:19:29.210Z,45
2023-03-12T11:22:54.398Z,45
2023-03-12T11:26:19.600Z,45
2023-03-12T11:29:44.881Z,45
2023-03-12T11:33:10.027Z,45
2023-03-12T11:36:35.257Z,51
2023-03-12T11:40:00.441Z,45
2023-03-12T11:43:40.198Z,39
2023-03-12T11:46:50.840Z,45
2023-03-12T11:50:16.026Z,51
2023-03-12T11:53:41.259Z,45
2023-03-12T11:57:06.480Z,39
2023-03-12T12:00:31.678Z,28
2023-03-12T12:03:56.889Z,23
2023-03-12T12:07:22.106Z,28
2023-03-12T12:10:47.346Z,28
2023-03-12T12:14:12.534Z,28
2023-03-12T12:17:37.766Z,28
2023-03-12T12:21:02.987Z,28
2023-03-12T12:24:28.198Z,23
2023-03-12T12:27:53.432Z,23
2023-03-12T12:31:18.658Z,17
2023-03-12T12:34:43.864Z,17
2023-03-12T12:38:09.102Z,23
2023-03-12T12:41:34.382Z,28
2023-03-12T12:44:59.673Z,28
2023-03-12T12:48:24.852Z,28
2023-03-12T12:51:50.067Z,23
2023-03-12T12:55:16.175Z,23
2023-03-12T12:58:41.363Z,23
2023-03-12T13:02:06.597Z,23
2023-03-12T13:05:31.765Z,17
2023-03-12T13:08:56.997Z,17
2023-03-12T13:12:22.200Z,17
2023-03-12T13:15:47.444Z,23
2023-03-12T13:19:12.616Z,17
2023-03-12T13:22:37.819Z,17
2023-03-12T13:26:03.001Z,17
2023-03-12T13:29:28.178Z,23
2023-03-12T13:32:53.429Z,23
2023-03-12T13:36:18.647Z,17
2023-03-12T13:39:43.772Z,17
2023-03-12T13:43:08.960Z,17
2023-03-12T13:46:34.286Z,17
2023-03-12T13:49:59.383Z,11
2023-03-12T13:53:24.632Z,6
2023-03-12T13:56:49.767Z,11
2023-03-12T14:00:14.976Z,11
2023-03-12T14:03:40.608Z,17
2023-03-12T14:07:05.885Z,11
2023-03-12T14:10:31.242Z,6
2023-03-12T14:13:56.782Z,11
2023-03-12T14:17:22.150Z,6
2023-03-12T14:20:47.506Z,6
2023-03-12T14:24:12.897Z,6
2023-03-12T14:27:38.243Z,6
2023-03-12T15:06:40.568Z,6
2023-03-12T15:10:05.894Z,11
2023-03-12T15:13:31.322Z,11
2023-03-12T15:16:57.969Z,11
2023-03-12T15:20:22.109Z,17
2023-03-12T15:23:47.573Z,11
2023-03-12T15:27:12.914Z,6
2023-03-12T15:30:38.369Z,6
2023-03-12T15:34:03.703Z,6
2023-03-12T15:37:29.121Z,6
2023-03-12T15:40:54.531Z,6
2023-03-12T15:44:19.873Z,0
2023-03-12T15:47:45.208Z,6
2023-03-12T15:51:10.554Z,6
2023-03-12T15:54:35.974Z,6
2023-03-12T15:58:01.368Z,6
2023-03-12T16:01:26.747Z,6
2023-03-12T16:04:52.095Z,6
2023-03-12T16:08:17.507Z,6
2023-03-12T16:11:42.863Z,6
2023-03-12T16:15:08.319Z,6
2023-03-12T16:18:33.673Z,0
2023-03-12T16:21:59.075Z,0
2023-03-12T16:25:24.433Z,0
2023-03-12T16:28:49.865Z,0
2023-03-12T16:32:15.235Z,0
2023-03-12T16:35:40.386Z,0
2023-03-12T16:39:05.742Z,0
2023-03-12T16:42:30.967Z,0
2023-03-12T16:45:56.713Z,0
2023-03-12T16:49:21.527Z,0
2023-03-12T16:52:46.869Z,0
2023-03-12T16:56:12.286Z,0
2023-03-12T16:59:37.705Z,0
2023-03-12T17:03:03.126Z,0
2023-03-12T17:06:28.457Z,0
2023-03-12T17:09:53.854Z,0
2023-03-12T17:13:19.304Z,0
2023-03-12T17:16:44.680Z,0
2023-03-12T17:20:10.120Z,0
2023-03-12T17:23:35.654Z,0
2023-03-12T17:27:01.093Z,0
2023-03-12T17:30:26.598Z,0
2023-03-12T17:33:52.124Z,0
2023-03-12T17:37:17.541Z,0
2023-03-12T17:40:43.101Z,0
2023-03-12T17:44:08.450Z,0
2023-03-12T17:47:33.841Z,0
2023-03-12T17:50:59.263Z,0
2023-03-12T17:54:24.720Z,0
2023-03-12T17:57:50.090Z,0
2023-03-12T18:01:15.490Z,0
2023-03-12T18:04:41.000Z,0
2023-03-12T18:08:06.359Z,0
2023-03-12T18:11:31.756Z,0
2023-03-12T18:14:57.005Z,0
2023-03-12T18:18:22.209Z,0
2023-03-12T18:21:47.449Z,0
2023-03-12T18:25:12.670Z,0
2023-03-12T18:28:37.913Z,0
2023-03-12T18:32:03.164Z,0
2023-03-12T18:35:29.268Z,0
2023-03-12T18:38:54.463Z,0
2023-03-12T18:42:19.714Z,0
2023-03-12T18:45:44.940Z,0
2023-03-12T18:49:10.144Z,0
2023-03-12T18:52:35.336Z,0
2023-03-12T18:56:00.531Z,0
2023-03-12T18:59:25.726Z,0
2023-03-12T19:02:50.957Z,0
2023-03-12T19:06:16.175Z,0
2023-03-12T19:09:41.359Z,0
2023-03-12T19:13:06.582Z,0
2023-03-12T19:16:31.828Z,0
2023-03-12T19:19:57.320Z,0
2023-03-12T19:23:23.235Z,0
2023-03-12T19:26:48.391Z,0
2023-03-12T19:30:13.615Z,0
2023-03-12T19:33:38.801Z,0
2023-03-12T19:37:04.004Z,0
2023-03-12T19:40:29.213Z,0
2023-03-12T19:43:54.395Z,0
2023-03-12T19:47:19.591Z,0
2023-03-12T19:50:44.763Z,0
2023-03-12T19:54:09.983Z,0
2023-03-12T19:57:35.193Z,0
2023-03-12T20:01:00.359Z,0
2023-03-12T20:04:25.573Z,0
2023-03-12T20:07:50.772Z,0
2023-03-12T20:11:15.970Z,0
2023-03-12T20:14:42.748Z,0
2023-03-12T20:18:06.378Z,0
2023-03-12T20:21:31.557Z,0
2023-03-12T20:24:56.770Z,0
2023-03-12T20:28:21.985Z,0
2023-03-12T20:31:47.229Z,0
2023-03-12T20:35:12.426Z,0
2023-03-12T20:38:37.614Z,0
2023-03-12T20:42:02.825Z,0
2023-03-12T20:45:28.127Z,0
2023-03-12T20:48:55.007Z,0
2023-03-12T20:52:18.519Z,0
2023-03-12T20:55:43.706Z,0
2023-03-12T20:59:08.897Z,0
2023-03-12T21:02:34.157Z,0
2023-03-12T21:05:59.325Z,0
2023-03-12T21:09:24.470Z,0
2023-03-12T21:12:49.643Z,0
2023-03-12T21:16:14.838Z,0
2023-03-12T21:19:40.032Z,0
2023-03-12T21:23:05.297Z,0
2023-03-12T21:26:30.439Z,0
2023-03-12T21:29:55.638Z,0
2023-03-12T21:33:20.831Z,0
2023-03-12T21:36:46.031Z,0
2023-03-12T21:40:11.241Z,0
2023-03-12T21:43:36.449Z,0
2023-03-12T21:47:01.625Z,0
2023-03-12T21:50:26.827Z,0
2023-03-12T21:53:52.025Z,0
2023-03-12T21:57:17.233Z,0
2023-03-12T22:00:42.390Z,0
2023-03-12T22:04:07.667Z,0
2023-03-12T22:07:32.798Z,0
2023-03-12T22:10:57.954Z,0
2023-03-12T22:14:23.174Z,0
2023-03-12T22:17:48.337Z,0
2023-03-12T22:21:13.546Z,0
2023-03-12T22:24:38.728Z,0
2023-03-12T22:28:03.932Z,0
2023-03-12T22:31:29.229Z,0
2023-03-12T22:34:54.289Z,0
2023-03-12T22:38:19.490Z,0
2023-03-12T22:41:44.677Z,0
2023-03-12T22:45:09.853Z,0
2023-03-12T22:48:35.080Z,0
2023-03-12T22:52:00.223Z,0
2023-03-12T22:55:25.445Z,0
2023-03-12T22:58:50.630Z,0
2023-03-12T23:02:15.858Z,0
2023-03-12T23:05:41.056Z,0
2023-03-12T23:09:06.178Z,0
2023-03-12T23:12:31.363Z,0
2023-03-12T23:15:56.600Z,0
2023-03-12T23:19:21.738Z,0
2023-03-12T23:22:46.942Z,0
2023-03-12T23:26:12.096Z,0
2023-03-12T23:29:37.288Z,0
2023-03-12T23:33:02.581Z,0
2023-03-12T23:36:27.692Z,0
2023-03-12T23:39:54.985Z,0
2023-03-12T23:43:18.047Z,0
2023-03-12T23:46:43.246Z,0
2023-03-12T23:50:08.433Z,0
2023-03-12T23:53:33.625Z,0
2023-03-12T23:56:58.831Z,0
